sensor_id;sensor_type;location;lat;lon;timestamp;temperature;humidity
5059;DHT22;2548;52.050;11.036;2023-08-12T00:01:25;18.60;99.90
5059;DHT22;2548;52.050;11.036;2023-08-12T00:03:53;18.60;99.90
5059;DHT22;2548;52.050;11.036;2023-08-12T00:06:22;18.60;99.90
5059;DHT22;2548;52.050;11.036;2023-08-12T00:08:50;18.60;99.90
5059;DHT22;2548;52.050;11.036;2023-08-12T00:11:17;18.50;99.90
5059;DHT22;2548;52.050;11.036;2023-08-12T00:13:45;18.50;99.90
5059;DHT22;2548;52.050;11.036;2023-08-12T00:16:12;18.50;99.90
5059;DHT22;2548;52.050;11.036;2023-08-12T00:18:40;18.50;99.90
5059;DHT22;2548;52.050;11.036;2023-08-12T00:21:08;18.50;99.90
5059;DHT22;2548;52.050;11.036;2023-08-12T00:23:39;18.50;99.90
5059;DHT22;2548;52.050;11.036;2023-08-12T00:26:06;18.40;99.90
5059;DHT22;2548;52.050;11.036;2023-08-12T00:28:34;18.40;99.90
5059;DHT22;2548;52.050;11.036;2023-08-12T00:31:02;18.40;99.90
5059;DHT22;2548;52.050;11.036;2023-08-12T00:33:30;18.40;99.90
5059;DHT22;2548;52.050;11.036;2023-08-12T00:35:57;18.40;99.90
5059;DHT22;2548;52.050;11.036;2023-08-12T00:38:25;18.40;99.90
5059;DHT22;2548;52.050;11.036;2023-08-12T00:40:54;18.40;99.90
5059;DHT22;2548;52.050;11.036;2023-08-12T00:43:21;18.40;99.90
5059;DHT22;2548;52.050;11.036;2023-08-12T00:45:48;18.40;99.90
5059;DHT22;2548;52.050;11.036;2023-08-12T00:48:17;18.50;99.90
5059;DHT22;2548;52.050;11.036;2023-08-12T00:50:45;18.50;99.90
5059;DHT22;2548;52.050;11.036;2023-08-12T00:53:15;18.40;99.90
5059;DHT22;2548;52.050;11.036;2023-08-12T00:55:43;18.50;99.90
5059;DHT22;2548;52.050;11.036;2023-08-12T00:58:12;18.50;99.90
5059;DHT22;2548;52.050;11.036;2023-08-12T01:00:41;18.40;99.90
5059;DHT22;2548;52.050;11.036;2023-08-12T01:03:08;18.40;99.90
5059;DHT22;2548;52.050;11.036;2023-08-12T01:05:36;18.40;99.90
5059;DHT22;2548;52.050;11.036;2023-08-12T01:08:04;18.40;99.90
5059;DHT22;2548;52.050;11.036;2023-08-12T01:10:35;18.40;99.90
5059;DHT22;2548;52.050;11.036;2023-08-12T01:13:11;18.40;99.90
5059;DHT22;2548;52.050;11.036;2023-08-12T01:15:42;18.40;99.90
5059;DHT22;2548;52.050;11.036;2023-08-12T01:18:11;18.40;99.90
5059;DHT22;2548;52.050;11.036;2023-08-12T01:20:40;18.30;99.90
5059;DHT22;2548;52.050;11.036;2023-08-12T01:23:10;18.30;99.90
5059;DHT22;2548;52.050;11.036;2023-08-12T01:25:38;18.40;99.90
5059;DHT22;2548;52.050;11.036;2023-08-12T01:28:06;18.40;99.90
5059;DHT22;2548;52.050;11.036;2023-08-12T01:30:36;18.40;99.90
5059;DHT22;2548;52.050;11.036;2023-08-12T01:33:11;18.40;99.90
5059;DHT22;2548;52.050;11.036;2023-08-12T01:35:45;18.40;99.90
5059;DHT22;2548;52.050;11.036;2023-08-12T01:38:18;18.40;99.90
5059;DHT22;2548;52.050;11.036;2023-08-12T01:40:47;18.20;99.90
5059;DHT22;2548;52.050;11.036;2023-08-12T01:43:15;18.30;99.90
5059;DHT22;2548;52.050;11.036;2023-08-12T01:45:42;18.20;99.90
5059;DHT22;2548;52.050;11.036;2023-08-12T01:48:11;18.10;99.90
5059;DHT22;2548;52.050;11.036;2023-08-12T01:50:38;18.10;99.90
5059;DHT22;2548;52.050;11.036;2023-08-12T01:53:06;18.10;99.90
5059;DHT22;2548;52.050;11.036;2023-08-12T01:55:34;18.00;99.90
5059;DHT22;2548;52.050;11.036;2023-08-12T01:58:02;17.90;99.90
5059;DHT22;2548;52.050;11.036;2023-08-12T02:00:30;17.90;99.90
5059;DHT22;2548;52.050;11.036;2023-08-12T02:02:56;17.90;99.90
5059;DHT22;2548;52.050;11.036;2023-08-12T02:05:25;18.00;99.90
5059;DHT22;2548;52.050;11.036;2023-08-12T02:07:52;18.00;99.90
5059;DHT22;2548;52.050;11.036;2023-08-12T02:10:20;18.00;99.90
5059;DHT22;2548;52.050;11.036;2023-08-12T02:12:49;18.00;99.90
5059;DHT22;2548;52.050;11.036;2023-08-12T02:15:17;18.00;99.90
5059;DHT22;2548;52.050;11.036;2023-08-12T02:17:44;18.00;99.90
5059;DHT22;2548;52.050;11.036;2023-08-12T02:20:12;18.00;99.90
5059;DHT22;2548;52.050;11.036;2023-08-12T02:22:39;18.00;99.90
5059;DHT22;2548;52.050;11.036;2023-08-12T02:25:07;18.00;99.90
5059;DHT22;2548;52.050;11.036;2023-08-12T02:27:35;18.00;99.90
5059;DHT22;2548;52.050;11.036;2023-08-12T02:30:05;17.90;99.90
5059;DHT22;2548;52.050;11.036;2023-08-12T02:32:33;18.00;99.90
5059;DHT22;2548;52.050;11.036;2023-08-12T02:35:00;18.00;99.90
5059;DHT22;2548;52.050;11.036;2023-08-12T02:37:28;17.90;99.90
5059;DHT22;2548;52.050;11.036;2023-08-12T02:39:55;17.90;99.90
5059;DHT22;2548;52.050;11.036;2023-08-12T02:42:22;17.90;99.90
5059;DHT22;2548;52.050;11.036;2023-08-12T02:44:50;17.90;99.90
5059;DHT22;2548;52.050;11.036;2023-08-12T02:47:19;17.90;99.90
5059;DHT22;2548;52.050;11.036;2023-08-12T02:49:46;17.90;99.90
5059;DHT22;2548;52.050;11.036;2023-08-12T02:52:14;17.90;99.90
5059;DHT22;2548;52.050;11.036;2023-08-12T02:54:41;17.90;99.90
5059;DHT22;2548;52.050;11.036;2023-08-12T02:57:09;17.90;99.90
5059;DHT22;2548;52.050;11.036;2023-08-12T02:59:36;17.90;99.90
5059;DHT22;2548;52.050;11.036;2023-08-12T03:02:04;17.80;99.90
5059;DHT22;2548;52.050;11.036;2023-08-12T03:04:32;17.80;99.90
5059;DHT22;2548;52.050;11.036;2023-08-12T03:07:00;17.80;99.90
5059;DHT22;2548;52.050;11.036;2023-08-12T03:09:28;17.70;99.90
5059;DHT22;2548;52.050;11.036;2023-08-12T03:11:56;17.70;99.90
5059;DHT22;2548;52.050;11.036;2023-08-12T03:14:28;17.70;99.90
5059;DHT22;2548;52.050;11.036;2023-08-12T03:16:59;17.70;99.90
5059;DHT22;2548;52.050;11.036;2023-08-12T03:19:27;17.70;99.90
5059;DHT22;2548;52.050;11.036;2023-08-12T03:21:56;17.70;99.90
5059;DHT22;2548;52.050;11.036;2023-08-12T03:24:23;17.80;99.90
5059;DHT22;2548;52.050;11.036;2023-08-12T03:26:51;17.80;99.90
5059;DHT22;2548;52.050;11.036;2023-08-12T03:29:18;17.80;99.90
5059;DHT22;2548;52.050;11.036;2023-08-12T03:31:48;17.80;99.90
5059;DHT22;2548;52.050;11.036;2023-08-12T03:34:15;17.80;99.90
5059;DHT22;2548;52.050;11.036;2023-08-12T03:36:43;17.80;99.90
5059;DHT22;2548;52.050;11.036;2023-08-12T03:41:55;17.80;99.90
5059;DHT22;2548;52.050;11.036;2023-08-12T03:44:22;17.80;99.90
5059;DHT22;2548;52.050;11.036;2023-08-12T03:46:51;17.80;99.90
5059;DHT22;2548;52.050;11.036;2023-08-12T03:49:19;17.80;99.90
5059;DHT22;2548;52.050;11.036;2023-08-12T03:51:47;17.80;99.90
5059;DHT22;2548;52.050;11.036;2023-08-12T03:54:19;17.80;99.90
5059;DHT22;2548;52.050;11.036;2023-08-12T03:56:50;17.90;99.90
5059;DHT22;2548;52.050;11.036;2023-08-12T03:59:18;17.90;99.90
5059;DHT22;2548;52.050;11.036;2023-08-12T04:01:46;17.90;99.90
5059;DHT22;2548;52.050;11.036;2023-08-12T04:04:13;17.90;99.90
5059;DHT22;2548;52.050;11.036;2023-08-12T04:06:41;17.90;99.90
5059;DHT22;2548;52.050;11.036;2023-08-12T04:09:15;17.80;99.90
5059;DHT22;2548;52.050;11.036;2023-08-12T04:11:44;17.80;99.90
5059;DHT22;2548;52.050;11.036;2023-08-12T04:14:12;17.80;99.90
5059;DHT22;2548;52.050;11.036;2023-08-12T04:16:42;17.90;99.90
5059;DHT22;2548;52.050;11.036;2023-08-12T04:19:16;17.80;99.90
5059;DHT22;2548;52.050;11.036;2023-08-12T04:21:49;17.90;99.90
5059;DHT22;2548;52.050;11.036;2023-08-12T04:24:20;17.90;99.90
5059;DHT22;2548;52.050;11.036;2023-08-12T04:26:49;17.90;99.90
5059;DHT22;2548;52.050;11.036;2023-08-12T04:29:20;17.90;99.90
5059;DHT22;2548;52.050;11.036;2023-08-12T04:31:47;17.90;99.90
5059;DHT22;2548;52.050;11.036;2023-08-12T04:34:18;17.90;99.90
5059;DHT22;2548;52.050;11.036;2023-08-12T04:36:51;17.90;99.90
5059;DHT22;2548;52.050;11.036;2023-08-12T04:39:19;17.90;99.90
5059;DHT22;2548;52.050;11.036;2023-08-12T04:41:56;18.00;99.90
5059;DHT22;2548;52.050;11.036;2023-08-12T04:44:29;18.00;99.90
5059;DHT22;2548;52.050;11.036;2023-08-12T04:46:57;18.10;99.90
5059;DHT22;2548;52.050;11.036;2023-08-12T04:49:25;18.10;99.90
5059;DHT22;2548;52.050;11.036;2023-08-12T04:51:53;18.10;99.90
5059;DHT22;2548;52.050;11.036;2023-08-12T04:54:21;18.10;99.90
5059;DHT22;2548;52.050;11.036;2023-08-12T04:56:49;18.20;99.90
5059;DHT22;2548;52.050;11.036;2023-08-12T04:59:18;18.30;99.90
5059;DHT22;2548;52.050;11.036;2023-08-12T05:01:50;18.40;99.90
5059;DHT22;2548;52.050;11.036;2023-08-12T05:04:17;18.40;99.90
5059;DHT22;2548;52.050;11.036;2023-08-12T05:06:45;18.50;99.90
5059;DHT22;2548;52.050;11.036;2023-08-12T05:09:13;18.50;99.90
5059;DHT22;2548;52.050;11.036;2023-08-12T05:11:41;18.60;99.90
5059;DHT22;2548;52.050;11.036;2023-08-12T05:14:19;18.60;99.90
5059;DHT22;2548;52.050;11.036;2023-08-12T05:16:47;18.60;99.90
5059;DHT22;2548;52.050;11.036;2023-08-12T05:19:14;18.60;99.90
5059;DHT22;2548;52.050;11.036;2023-08-12T05:21:44;18.70;99.90
5059;DHT22;2548;52.050;11.036;2023-08-12T05:24:12;18.60;99.90
5059;DHT22;2548;52.050;11.036;2023-08-12T05:26:42;18.60;99.90
5059;DHT22;2548;52.050;11.036;2023-08-12T05:29:13;18.60;99.90
5059;DHT22;2548;52.050;11.036;2023-08-12T05:31:44;18.60;99.90
5059;DHT22;2548;52.050;11.036;2023-08-12T05:34:15;18.60;99.90
5059;DHT22;2548;52.050;11.036;2023-08-12T05:36:45;18.60;99.90
5059;DHT22;2548;52.050;11.036;2023-08-12T05:39:16;18.60;99.90
5059;DHT22;2548;52.050;11.036;2023-08-12T05:41:46;18.60;99.90
5059;DHT22;2548;52.050;11.036;2023-08-12T05:44:17;18.50;99.90
5059;DHT22;2548;52.050;11.036;2023-08-12T05:46:48;18.50;99.90
5059;DHT22;2548;52.050;11.036;2023-08-12T05:49:16;18.30;99.90
5059;DHT22;2548;52.050;11.036;2023-08-12T05:51:50;18.30;99.90
5059;DHT22;2548;52.050;11.036;2023-08-12T05:54:17;18.20;99.90
5059;DHT22;2548;52.050;11.036;2023-08-12T05:56:55;18.10;99.90
5059;DHT22;2548;52.050;11.036;2023-08-12T05:59:23;18.10;99.90
5059;DHT22;2548;52.050;11.036;2023-08-12T06:01:52;18.10;99.90
5059;DHT22;2548;52.050;11.036;2023-08-12T06:04:19;18.10;99.90
5059;DHT22;2548;52.050;11.036;2023-08-12T06:06:53;18.10;99.90
5059;DHT22;2548;52.050;11.036;2023-08-12T06:09:21;18.10;99.90
5059;DHT22;2548;52.050;11.036;2023-08-12T06:11:49;18.20;99.90
5059;DHT22;2548;52.050;11.036;2023-08-12T06:14:17;18.20;99.90
5059;DHT22;2548;52.050;11.036;2023-08-12T06:16:44;18.10;99.90
5059;DHT22;2548;52.050;11.036;2023-08-12T06:19:22;18.20;99.90
5059;DHT22;2548;52.050;11.036;2023-08-12T06:21:51;18.20;99.90
5059;DHT22;2548;52.050;11.036;2023-08-12T06:24:19;18.30;99.90
5059;DHT22;2548;52.050;11.036;2023-08-12T06:26:52;18.40;99.90
5059;DHT22;2548;52.050;11.036;2023-08-12T06:29:20;18.50;99.90
5059;DHT22;2548;52.050;11.036;2023-08-12T06:31:48;18.60;99.90
5059;DHT22;2548;52.050;11.036;2023-08-12T06:34:15;18.60;99.90
5059;DHT22;2548;52.050;11.036;2023-08-12T06:36:44;18.70;99.90
5059;DHT22;2548;52.050;11.036;2023-08-12T06:39:12;18.90;99.90
5059;DHT22;2548;52.050;11.036;2023-08-12T06:41:43;19.00;99.90
5059;DHT22;2548;52.050;11.036;2023-08-12T06:44:11;19.00;99.90
5059;DHT22;2548;52.050;11.036;2023-08-12T06:46:42;19.10;99.90
5059;DHT22;2548;52.050;11.036;2023-08-12T06:49:10;19.10;99.90
5059;DHT22;2548;52.050;11.036;2023-08-12T06:51:47;19.10;99.90
5059;DHT22;2548;52.050;11.036;2023-08-12T06:54:21;19.10;99.90
5059;DHT22;2548;52.050;11.036;2023-08-12T06:56:50;19.20;99.90
5059;DHT22;2548;52.050;11.036;2023-08-12T06:59:21;19.20;99.90
5059;DHT22;2548;52.050;11.036;2023-08-12T07:01:51;19.20;99.90
5059;DHT22;2548;52.050;11.036;2023-08-12T07:04:19;19.30;99.90
5059;DHT22;2548;52.050;11.036;2023-08-12T07:06:50;19.40;99.90
5059;DHT22;2548;52.050;11.036;2023-08-12T07:09:18;19.50;99.90
5059;DHT22;2548;52.050;11.036;2023-08-12T07:11:48;19.60;99.90
5059;DHT22;2548;52.050;11.036;2023-08-12T07:14:16;19.60;99.90
5059;DHT22;2548;52.050;11.036;2023-08-12T07:16:49;19.60;99.90
5059;DHT22;2548;52.050;11.036;2023-08-12T07:19:17;19.60;99.90
5059;DHT22;2548;52.050;11.036;2023-08-12T07:21:45;19.60;99.90
5059;DHT22;2548;52.050;11.036;2023-08-12T07:24:25;19.60;99.90
5059;DHT22;2548;52.050;11.036;2023-08-12T07:26:53;19.60;99.90
5059;DHT22;2548;52.050;11.036;2023-08-12T07:29:24;19.60;99.90
5059;DHT22;2548;52.050;11.036;2023-08-12T07:31:52;19.60;99.90
5059;DHT22;2548;52.050;11.036;2023-08-12T07:34:20;19.60;99.90
5059;DHT22;2548;52.050;11.036;2023-08-12T07:36:53;19.60;99.90
5059;DHT22;2548;52.050;11.036;2023-08-12T07:39:23;19.70;99.90
5059;DHT22;2548;52.050;11.036;2023-08-12T07:41:50;19.70;99.90
5059;DHT22;2548;52.050;11.036;2023-08-12T07:44:21;19.80;99.90
5059;DHT22;2548;52.050;11.036;2023-08-12T07:46:49;19.80;99.90
5059;DHT22;2548;52.050;11.036;2023-08-12T07:49:16;19.80;99.90
5059;DHT22;2548;52.050;11.036;2023-08-12T07:51:44;19.80;99.90
5059;DHT22;2548;52.050;11.036;2023-08-12T07:54:14;19.80;99.90
5059;DHT22;2548;52.050;11.036;2023-08-12T07:56:44;19.90;99.90
5059;DHT22;2548;52.050;11.036;2023-08-12T07:59:11;20.00;99.90
5059;DHT22;2548;52.050;11.036;2023-08-12T08:01:42;20.00;99.90
5059;DHT22;2548;52.050;11.036;2023-08-12T08:04:09;20.00;99.90
5059;DHT22;2548;52.050;11.036;2023-08-12T08:06:46;20.00;99.90
5059;DHT22;2548;52.050;11.036;2023-08-12T08:09:14;19.90;99.90
5059;DHT22;2548;52.050;11.036;2023-08-12T08:11:49;19.90;99.90
5059;DHT22;2548;52.050;11.036;2023-08-12T08:14:19;20.00;99.90
5059;DHT22;2548;52.050;11.036;2023-08-12T08:16:47;20.00;99.90
5059;DHT22;2548;52.050;11.036;2023-08-12T08:19:14;20.10;99.90
5059;DHT22;2548;52.050;11.036;2023-08-12T08:21:48;20.10;99.90
5059;DHT22;2548;52.050;11.036;2023-08-12T08:24:16;20.20;99.90
5059;DHT22;2548;52.050;11.036;2023-08-12T08:26:43;20.20;99.90
5059;DHT22;2548;52.050;11.036;2023-08-12T08:29:15;20.30;99.90
5059;DHT22;2548;52.050;11.036;2023-08-12T08:31:43;20.40;99.90
5059;DHT22;2548;52.050;11.036;2023-08-12T08:34:11;20.50;99.90
5059;DHT22;2548;52.050;11.036;2023-08-12T08:36:38;20.60;99.90
5059;DHT22;2548;52.050;11.036;2023-08-12T08:39:09;20.70;99.90
5059;DHT22;2548;52.050;11.036;2023-08-12T08:41:38;20.80;99.90
5059;DHT22;2548;52.050;11.036;2023-08-12T08:44:09;20.80;99.90
5059;DHT22;2548;52.050;11.036;2023-08-12T08:46:39;20.80;99.90
5059;DHT22;2548;52.050;11.036;2023-08-12T08:49:09;20.80;99.90
5059;DHT22;2548;52.050;11.036;2023-08-12T08:51:40;20.80;99.90
5059;DHT22;2548;52.050;11.036;2023-08-12T08:54:10;20.80;99.90
5059;DHT22;2548;52.050;11.036;2023-08-12T08:56:38;20.80;99.90
5059;DHT22;2548;52.050;11.036;2023-08-12T08:59:06;20.80;99.90
5059;DHT22;2548;52.050;11.036;2023-08-12T09:01:39;20.60;99.90
5059;DHT22;2548;52.050;11.036;2023-08-12T09:04:08;20.50;99.90
5059;DHT22;2548;52.050;11.036;2023-08-12T09:06:36;20.40;99.90
5059;DHT22;2548;52.050;11.036;2023-08-12T09:09:06;20.30;99.90
5059;DHT22;2548;52.050;11.036;2023-08-12T09:11:38;20.30;99.90
5059;DHT22;2548;52.050;11.036;2023-08-12T09:14:07;20.20;99.90
5059;DHT22;2548;52.050;11.036;2023-08-12T09:16:34;20.20;99.90
5059;DHT22;2548;52.050;11.036;2023-08-12T09:19:04;20.20;99.90
5059;DHT22;2548;52.050;11.036;2023-08-12T09:21:32;20.20;99.90
5059;DHT22;2548;52.050;11.036;2023-08-12T09:24:02;20.10;99.90
5059;DHT22;2548;52.050;11.036;2023-08-12T09:26:30;20.10;99.90
5059;DHT22;2548;52.050;11.036;2023-08-12T09:28:59;20.10;99.90
5059;DHT22;2548;52.050;11.036;2023-08-12T09:31:28;20.10;99.90
5059;DHT22;2548;52.050;11.036;2023-08-12T09:33:58;20.10;99.90
5059;DHT22;2548;52.050;11.036;2023-08-12T09:36:29;20.10;99.90
5059;DHT22;2548;52.050;11.036;2023-08-12T09:38:57;20.10;99.90
5059;DHT22;2548;52.050;11.036;2023-08-12T09:41:26;20.10;99.90
5059;DHT22;2548;52.050;11.036;2023-08-12T09:43:55;20.20;99.90
5059;DHT22;2548;52.050;11.036;2023-08-12T09:46:23;20.20;99.90
5059;DHT22;2548;52.050;11.036;2023-08-12T09:48:51;20.20;99.90
5059;DHT22;2548;52.050;11.036;2023-08-12T09:51:19;20.20;99.90
5059;DHT22;2548;52.050;11.036;2023-08-12T09:53:50;20.30;99.90
5059;DHT22;2548;52.050;11.036;2023-08-12T09:56:21;20.30;99.90
5059;DHT22;2548;52.050;11.036;2023-08-12T09:58:50;20.30;99.90
5059;DHT22;2548;52.050;11.036;2023-08-12T10:01:20;20.40;99.90
5059;DHT22;2548;52.050;11.036;2023-08-12T10:03:49;20.40;99.90
5059;DHT22;2548;52.050;11.036;2023-08-12T10:06:18;20.50;99.90
5059;DHT22;2548;52.050;11.036;2023-08-12T10:08:46;20.50;99.90
5059;DHT22;2548;52.050;11.036;2023-08-12T10:11:16;20.60;99.90
5059;DHT22;2548;52.050;11.036;2023-08-12T10:13:43;20.80;99.90
5059;DHT22;2548;52.050;11.036;2023-08-12T10:16:14;20.90;99.90
5059;DHT22;2548;52.050;11.036;2023-08-12T10:18:42;21.10;99.90
5059;DHT22;2548;52.050;11.036;2023-08-12T10:21:10;21.20;99.90
5059;DHT22;2548;52.050;11.036;2023-08-12T10:23:41;21.40;99.90
5059;DHT22;2548;52.050;11.036;2023-08-12T10:26:15;21.70;99.90
5059;DHT22;2548;52.050;11.036;2023-08-12T10:28:43;22.00;99.90
5059;DHT22;2548;52.050;11.036;2023-08-12T10:31:11;22.30;99.90
5059;DHT22;2548;52.050;11.036;2023-08-12T10:33:39;22.70;99.90
5059;DHT22;2548;52.050;11.036;2023-08-12T10:36:08;22.90;99.90
5059;DHT22;2548;52.050;11.036;2023-08-12T10:38:36;23.30;99.90
5059;DHT22;2548;52.050;11.036;2023-08-12T10:41:18;23.60;99.90
5059;DHT22;2548;52.050;11.036;2023-08-12T10:43:52;23.90;99.90
5059;DHT22;2548;52.050;11.036;2023-08-12T10:46:26;24.10;99.90
5059;DHT22;2548;52.050;11.036;2023-08-12T10:48:57;24.30;99.90
5059;DHT22;2548;52.050;11.036;2023-08-12T10:51:41;24.60;99.90
5059;DHT22;2548;52.050;11.036;2023-08-12T10:54:14;24.80;99.90
5059;DHT22;2548;52.050;11.036;2023-08-12T10:57:11;25.00;99.90
5059;DHT22;2548;52.050;11.036;2023-08-12T10:59:54;25.20;99.90
5059;DHT22;2548;52.050;11.036;2023-08-12T11:02:27;25.20;99.90
5059;DHT22;2548;52.050;11.036;2023-08-12T11:04:57;25.10;99.90
5059;DHT22;2548;52.050;11.036;2023-08-12T11:07:33;25.20;99.90
5059;DHT22;2548;52.050;11.036;2023-08-12T11:10:05;25.30;99.90
5059;DHT22;2548;52.050;11.036;2023-08-12T11:12:35;25.40;99.90
5059;DHT22;2548;52.050;11.036;2023-08-12T11:15:04;25.50;99.90
5059;DHT22;2548;52.050;11.036;2023-08-12T11:17:33;25.50;99.90
5059;DHT22;2548;52.050;11.036;2023-08-12T11:20:03;25.60;99.90
5059;DHT22;2548;52.050;11.036;2023-08-12T11:22:32;25.70;99.90
5059;DHT22;2548;52.050;11.036;2023-08-12T11:25:01;25.80;99.90
5059;DHT22;2548;52.050;11.036;2023-08-12T11:27:38;26.00;99.90
5059;DHT22;2548;52.050;11.036;2023-08-12T11:30:09;26.10;99.90
5059;DHT22;2548;52.050;11.036;2023-08-12T11:32:38;26.10;99.90
5059;DHT22;2548;52.050;11.036;2023-08-12T11:35:07;26.00;99.90
5059;DHT22;2548;52.050;11.036;2023-08-12T11:37:36;25.90;99.90
5059;DHT22;2548;52.050;11.036;2023-08-12T11:40:05;25.90;99.90
5059;DHT22;2548;52.050;11.036;2023-08-12T11:42:35;25.80;99.90
5059;DHT22;2548;52.050;11.036;2023-08-12T11:45:08;25.80;99.90
5059;DHT22;2548;52.050;11.036;2023-08-12T11:47:36;25.80;99.90
5059;DHT22;2548;52.050;11.036;2023-08-12T11:50:12;25.80;99.90
5059;DHT22;2548;52.050;11.036;2023-08-12T11:52:40;25.80;99.90
5059;DHT22;2548;52.050;11.036;2023-08-12T11:55:09;25.90;99.90
5059;DHT22;2548;52.050;11.036;2023-08-12T11:57:39;26.10;99.90
5059;DHT22;2548;52.050;11.036;2023-08-12T12:00:12;26.50;99.90
5059;DHT22;2548;52.050;11.036;2023-08-12T12:02:46;26.60;99.90
5059;DHT22;2548;52.050;11.036;2023-08-12T12:05:26;26.70;99.90
5059;DHT22;2548;52.050;11.036;2023-08-12T12:07:54;26.70;99.90
5059;DHT22;2548;52.050;11.036;2023-08-12T12:10:27;26.80;99.90
5059;DHT22;2548;52.050;11.036;2023-08-12T12:12:55;27.10;99.90
5059;DHT22;2548;52.050;11.036;2023-08-12T12:15:24;27.40;99.90
5059;DHT22;2548;52.050;11.036;2023-08-12T12:17:52;27.70;99.90
5059;DHT22;2548;52.050;11.036;2023-08-12T12:20:20;27.90;99.90
5059;DHT22;2548;52.050;11.036;2023-08-12T12:22:49;28.20;99.90
5059;DHT22;2548;52.050;11.036;2023-08-12T12:25:17;28.40;99.90
5059;DHT22;2548;52.050;11.036;2023-08-12T12:27:48;28.50;99.90
5059;DHT22;2548;52.050;11.036;2023-08-12T12:30:16;28.50;99.90
5059;DHT22;2548;52.050;11.036;2023-08-12T12:32:47;28.40;99.90
5059;DHT22;2548;52.050;11.036;2023-08-12T12:35:15;28.20;99.90
5059;DHT22;2548;52.050;11.036;2023-08-12T12:37:42;28.20;99.90
5059;DHT22;2548;52.050;11.036;2023-08-12T12:40:13;28.30;99.90
5059;DHT22;2548;52.050;11.036;2023-08-12T12:42:40;28.30;99.90
5059;DHT22;2548;52.050;11.036;2023-08-12T12:45:11;28.10;99.90
5059;DHT22;2548;52.050;11.036;2023-08-12T12:47:39;28.00;99.90
5059;DHT22;2548;52.050;11.036;2023-08-12T12:50:14;28.00;99.90
5059;DHT22;2548;52.050;11.036;2023-08-12T12:52:43;28.20;99.90
5059;DHT22;2548;52.050;11.036;2023-08-12T12:55:13;28.00;99.90
5059;DHT22;2548;52.050;11.036;2023-08-12T12:57:41;27.90;99.90
5059;DHT22;2548;52.050;11.036;2023-08-12T13:00:14;27.80;99.90
5059;DHT22;2548;52.050;11.036;2023-08-12T13:02:42;27.70;99.90
5059;DHT22;2548;52.050;11.036;2023-08-12T13:05:10;27.70;99.90
5059;DHT22;2548;52.050;11.036;2023-08-12T13:07:47;27.80;99.90
5059;DHT22;2548;52.050;11.036;2023-08-12T13:10:14;27.80;99.90
5059;DHT22;2548;52.050;11.036;2023-08-12T13:12:46;27.80;99.90
5059;DHT22;2548;52.050;11.036;2023-08-12T13:15:13;28.00;99.90
5059;DHT22;2548;52.050;11.036;2023-08-12T13:17:41;28.50;99.90
5059;DHT22;2548;52.050;11.036;2023-08-12T13:20:11;28.80;99.90
5059;DHT22;2548;52.050;11.036;2023-08-12T13:22:46;28.90;99.90
5059;DHT22;2548;52.050;11.036;2023-08-12T13:25:14;29.10;99.90
5059;DHT22;2548;52.050;11.036;2023-08-12T13:27:42;29.30;99.90
5059;DHT22;2548;52.050;11.036;2023-08-12T13:30:13;29.20;99.90
5059;DHT22;2548;52.050;11.036;2023-08-12T13:32:43;28.90;99.90
5059;DHT22;2548;52.050;11.036;2023-08-12T13:35:17;28.70;99.90
5059;DHT22;2548;52.050;11.036;2023-08-12T13:37:46;28.50;99.90
5059;DHT22;2548;52.050;11.036;2023-08-12T13:40:14;28.60;99.90
5059;DHT22;2548;52.050;11.036;2023-08-12T13:42:47;28.70;99.90
5059;DHT22;2548;52.050;11.036;2023-08-12T13:45:24;28.60;99.90
5059;DHT22;2548;52.050;11.036;2023-08-12T13:47:52;28.50;99.90
5059;DHT22;2548;52.050;11.036;2023-08-12T13:50:23;28.50;99.90
5059;DHT22;2548;52.050;11.036;2023-08-12T13:52:52;28.50;99.90
5059;DHT22;2548;52.050;11.036;2023-08-12T13:55:20;28.40;99.90
5059;DHT22;2548;52.050;11.036;2023-08-12T13:57:47;28.30;99.90
5059;DHT22;2548;52.050;11.036;2023-08-12T14:00:15;28.20;99.90
5059;DHT22;2548;52.050;11.036;2023-08-12T14:02:50;28.00;99.90
5059;DHT22;2548;52.050;11.036;2023-08-12T14:05:18;27.80;99.90
5059;DHT22;2548;52.050;11.036;2023-08-12T14:07:53;27.60;99.90
5059;DHT22;2548;52.050;11.036;2023-08-12T14:10:21;27.40;99.90
5059;DHT22;2548;52.050;11.036;2023-08-12T14:12:54;27.30;99.90
5059;DHT22;2548;52.050;11.036;2023-08-12T14:15:25;27.10;99.90
5059;DHT22;2548;52.050;11.036;2023-08-12T14:17:53;27.00;99.90
5059;DHT22;2548;52.050;11.036;2023-08-12T14:20:20;26.80;99.90
5059;DHT22;2548;52.050;11.036;2023-08-12T14:22:48;26.70;99.90
5059;DHT22;2548;52.050;11.036;2023-08-12T14:25:17;26.60;99.90
5059;DHT22;2548;52.050;11.036;2023-08-12T14:27:51;26.50;99.90
5059;DHT22;2548;52.050;11.036;2023-08-12T14:30:19;26.40;99.90
5059;DHT22;2548;52.050;11.036;2023-08-12T14:32:56;26.40;99.90
5059;DHT22;2548;52.050;11.036;2023-08-12T14:35:25;26.30;99.90
5059;DHT22;2548;52.050;11.036;2023-08-12T14:37:55;26.30;99.90
5059;DHT22;2548;52.050;11.036;2023-08-12T14:40:24;26.20;99.90
5059;DHT22;2548;52.050;11.036;2023-08-12T14:42:55;26.20;99.90
5059;DHT22;2548;52.050;11.036;2023-08-12T14:45:25;26.10;99.90
5059;DHT22;2548;52.050;11.036;2023-08-12T14:47:58;26.10;99.90
5059;DHT22;2548;52.050;11.036;2023-08-12T14:50:26;26.00;99.90
5059;DHT22;2548;52.050;11.036;2023-08-12T14:52:54;26.10;99.90
5059;DHT22;2548;52.050;11.036;2023-08-12T14:55:21;26.10;99.90
5059;DHT22;2548;52.050;11.036;2023-08-12T14:57:53;26.10;99.90
5059;DHT22;2548;52.050;11.036;2023-08-12T15:00:21;26.20;99.90
5059;DHT22;2548;52.050;11.036;2023-08-12T15:02:48;26.20;99.90
5059;DHT22;2548;52.050;11.036;2023-08-12T15:05:16;26.30;99.90
5059;DHT22;2548;52.050;11.036;2023-08-12T15:07:45;26.30;99.90
5059;DHT22;2548;52.050;11.036;2023-08-12T15:10:25;26.40;99.90
5059;DHT22;2548;52.050;11.036;2023-08-12T15:13:00;26.40;99.90
5059;DHT22;2548;52.050;11.036;2023-08-12T15:15:27;26.40;99.90
5059;DHT22;2548;52.050;11.036;2023-08-12T15:17:55;26.50;99.90
5059;DHT22;2548;52.050;11.036;2023-08-12T15:20:22;26.60;99.90
5059;DHT22;2548;52.050;11.036;2023-08-12T15:22:50;26.60;99.90
5059;DHT22;2548;52.050;11.036;2023-08-12T15:25:21;26.70;99.90
5059;DHT22;2548;52.050;11.036;2023-08-12T15:27:48;26.70;99.90
5059;DHT22;2548;52.050;11.036;2023-08-12T15:30:18;26.80;99.90
5059;DHT22;2548;52.050;11.036;2023-08-12T15:32:48;26.80;99.90
5059;DHT22;2548;52.050;11.036;2023-08-12T15:35:16;26.80;99.90
5059;DHT22;2548;52.050;11.036;2023-08-12T15:37:44;26.90;99.90
5059;DHT22;2548;52.050;11.036;2023-08-12T15:40:12;26.90;99.90
5059;DHT22;2548;52.050;11.036;2023-08-12T15:42:40;27.10;99.90
5059;DHT22;2548;52.050;11.036;2023-08-12T15:45:10;27.30;99.90
5059;DHT22;2548;52.050;11.036;2023-08-12T15:47:43;27.50;99.90
5059;DHT22;2548;52.050;11.036;2023-08-12T15:50:11;27.80;99.90
5059;DHT22;2548;52.050;11.036;2023-08-12T15:52:38;27.90;99.90
5059;DHT22;2548;52.050;11.036;2023-08-12T15:55:06;27.90;99.90
5059;DHT22;2548;52.050;11.036;2023-08-12T15:57:37;27.90;99.90
5059;DHT22;2548;52.050;11.036;2023-08-12T16:00:06;27.80;99.90
5059;DHT22;2548;52.050;11.036;2023-08-12T16:02:36;27.80;99.90